This is the latest recevied weather packets stored in our database for station/object SQ2CDE-4. If no packets are shown the sender has not sent any weather packets the latest 10 day(s).
| Time | Temp. | Humidity | Pressure | Rain* | Wind** | Luminosity | Snow |
|---|---|---|---|---|---|---|---|
| 1777535420 | 8.89° C | 46% | 1030 hPa | - | - | - | - |
| 1777534820 | 8.89° C | 46% | 1030 hPa | - | - | - | - |
| 1777534219 | 7.22° C | 49% | 1030 hPa | - | - | - | - |
| 1777533618 | 7.22° C | 49% | 1030 hPa | - | - | - | - |
| 1777533018 | 7.22° C | 49% | 1030 hPa | - | - | - | - |
| 1777532417 | 6.11° C | 52% | 1030 hPa | - | - | - | - |
| 1777531816 | 6.11° C | 52% | 1030 hPa | - | - | - | - |
| 1777531215 | 6.11° C | 52% | 1030 hPa | - | - | - | - |
| 1777530613 | 5° C | 56% | 1030 hPa | - | - | - | - |
| 1777530012 | 5° C | 56% | 1030 hPa | - | - | - | - |
| 1777529411 | 5° C | 56% | 1030 hPa | - | - | - | - |
| 1777528810 | 2.22° C | 69% | 1031 hPa | - | - | - | - |
| 1777528206 | 2.22° C | 69% | 1031 hPa | - | - | - | - |
| 1777527606 | 2.22° C | 69% | 1031 hPa | - | - | - | - |
| 1777527005 | 2.22° C | 69% | 1031 hPa | - | - | - | - |
| 1777526400 | 2.22° C | 69% | 1031 hPa | - | - | - | - |
| 1777525797 | 2.22° C | 69% | 1031 hPa | - | - | - | - |
| 1777525195 | 2.22° C | 60% | 1030 hPa | - | - | - | - |
| 1777524592 | 2.22° C | 60% | 1030 hPa | - | - | - | - |
| 1777523989 | 2.22° C | 60% | 1030 hPa | - | - | - | - |
| 1777523387 | 1.11° C | 64% | 1031 hPa | - | - | - | - |
| 1777522784 | 1.11° C | 64% | 1031 hPa | - | - | - | - |
| 1777522181 | 1.11° C | 64% | 1031 hPa | - | - | - | - |
| 1777521579 | 1.11° C | 69% | 1031 hPa | - | - | - | - |
| 1777520976 | 1.11° C | 69% | 1031 hPa | - | - | - | - |
* Rain since midnight (hover to see other rain measurements)
** Current wind speed in m/s (hover to see current wind gust speed)